Latest Weather Observations for Cessnock Airport

IDN60801

Issued at 8:35 am EDT Thursday 23 October 2014 (issued every 30 minutes, with the page automatically refreshed every 10 minutes)

About weather observations | Map of weather stations | Latest weather observations for NSW | Other Formats
Station Details ID: 061260 Name: CESSNOCK AIRPORT AWS Lat: -32.79 Lon: 151.34 Height: 61.0 m
Data from the previous 72 hours. | See also: Recent months at Cessnock Airport
Date/Time
EDT
Temp
°C
App
Temp
°C
Dew
Point
Rel
Hum
%
Delta-T
°C
Wind Press
QNH
hPa
Press
MSL
hPa
Rain
since 9 am
mm
Dir
 
Spd
km/h
Gust
km/h
Spd
kts
Gust
kts
23/08:30am 16.8 17.5 13.5 81 1.9 S 2 7 1 4 1018.4 1018.3 0.0
23/08:00am 14.6 15.1 14.0 96 0.3 S 4 7 2 4 1018.4 1018.3 0.0
23/07:30am 12.2 12.9 12.2 100 0.0 CALM 0 0 0 0 1018.3 1018.2 0.0
23/07:00am 10.4 10.2 10.4 100 0.0 WSW 2 6 1 3 1018.2 1018.1 0.0
23/06:30am 9.9 9.9 9.9 100 0.0 CALM 0 0 0 0 1018.1 1018.0 0.0
23/06:00am 9.4 9.3 9.4 100 0.0 CALM 0 0 0 0 1018.1 1018.0 0.0
23/05:30am 9.0 8.4 9.0 100 0.0 WNW 2 7 1 4 1017.8 1017.7 0.0
23/05:00am 9.2 9.0 9.2 100 0.0 CALM 0 0 0 0 1017.8 1017.7 0.0
23/04:30am 9.3 9.1 9.2 99 0.0 CALM 0 0 0 0 1017.8 1017.7 0.0
23/04:00am 9.5 9.4 9.4 99 0.0 CALM 0 0 0 0 1017.8 1017.7 0.0
23/03:30am 9.5 9.3 9.2 98 0.1 W 0 0 0 0 1017.8 1017.7 0.0
23/03:00am 10.2 10.2 9.9 98 0.2 CALM 0 4 0 2 1018.0 1017.9 0.0
23/02:30am 10.3 10.3 9.8 97 0.3 CALM 0 2 0 1 1018.2 1018.1 0.0
23/02:00am 10.6 10.2 9.8 95 0.4 SSW 2 7 1 4 1018.5 1018.4 0.0
23/01:30am 11.6 11.9 11.0 96 0.3 CALM 0 0 0 0 1018.7 1018.6 0.0
23/01:00am 11.8 11.0 10.9 94 0.5 SW 6 7 3 4 1019.0 1018.9 0.0
23/12:30am 12.2 10.9 10.1 87 1.1 SW 7 9 4 5 1019.3 1019.2 0.0
23/12:00am 12.4 10.9 9.2 81 1.6 SSW 7 9 4 5 1019.5 1019.4 0.0
 
Date/Time
EDT
Temp
°C
App
Temp
°C
Dew
Point
Rel
Hum
%
Delta-T
°C
Wind Press
QNH
hPa
Press
MSL
hPa
Rain
since 9 am
mm
Dir
 
Spd
km/h
Gust
km/h
Spd
kts
Gust
kts
22/11:30pm 13.6 12.3 10.0 79 1.9 SSW 7 13 4 7 1019.6 1019.5 0.0
22/11:00pm 14.4 13.3 10.6 78 2.0 SSW 7 9 4 5 1019.7 1019.6 0.0
22/10:30pm 15.1 13.6 10.7 75 2.3 SSW 9 11 5 6 1019.9 1019.8 0.0
22/10:00pm 15.1 13.5 10.1 72 2.6 SSW 9 11 5 6 1020.0 1019.9 0.0
22/09:30pm 16.0 14.6 11.0 72 2.7 S 9 13 5 7 1020.0 1019.9 0.0
22/09:00pm 16.4 15.0 10.9 70 2.9 S 9 13 5 7 1019.9 1019.8 0.0
22/08:30pm 16.4 15.3 10.5 68 3.1 S 7 11 4 6 1019.7 1019.6 0.0
22/08:00pm 18.1 17.1 10.2 60 4.2 SE 6 9 3 5 1019.6 1019.5 0.0
22/07:30pm 19.6 17.8 10.9 57 4.7 ESE 11 15 6 8 1019.4 1019.3 0.0
22/07:00pm 20.8 19.4 10.9 53 5.4 ESE 9 15 5 8 1019.4 1019.3 0.0
22/06:30pm 22.0 19.5 11.1 50 6.0 E 15 17 8 9 1019.4 1019.3 0.0
22/06:00pm 23.0 20.3 10.4 45 6.9 E 15 20 8 11 1019.4 1019.3 0.0
22/05:30pm 23.5 19.8 9.5 41 7.6 E 19 24 10 13 1019.5 1019.4 0.0
22/05:00pm 25.0 22.7 7.6 33 9.2 NNE 9 17 5 9 1019.7 1019.6 0.0
22/04:30pm 24.8 23.3 8.3 35 8.8 N 6 11 3 6 1019.9 1019.8 0.0
22/04:00pm 24.2 21.6 6.0 31 9.3 NNE 9 13 5 7 1020.3 1020.2 0.0
22/03:30pm 24.3 22.4 6.6 32 9.2 NW 6 9 3 5 1020.8 1020.7 0.0
22/03:00pm 23.8 22.0 7.0 34 8.7 ENE 6 13 3 7 1021.2 1021.1 0.0
22/02:30pm 23.2 20.9 7.3 36 8.3 N 9 17 5 9 1021.8 1021.7 0.0
22/02:00pm 22.8 20.4 7.0 36 8.1 ENE 9 19 5 10 1022.4 1022.3 0.0
22/01:30pm 22.5 20.5 7.1 37 8.0 E 7 15 4 8 1023.1 1023.0 0.0
22/01:00pm 22.1 19.6 8.2 41 7.3 NE 11 22 6 12 1023.7 1023.6 0.0
22/12:30pm 21.4 19.2 8.0 42 7.0 ENE 9 15 5 8 1024.2 1024.1 0.0
22/12:00pm 21.1 17.4 8.0 43 6.8 NE 17 22 9 12 1024.6 1024.5 0.0
22/11:30am 21.1 17.7 9.0 46 6.4 NNE 17 28 9 15 1025.2 1025.1 0.0
22/11:00am 19.8 16.2 8.5 48 5.9 NE 17 24 9 13 1025.7 1025.6 0.0
22/10:30am 19.1 16.2 9.6 54 5.0 NE 15 26 8 14 1026.1 1026.0 0.0
22/10:00am 19.4 15.5 9.3 52 5.3 NNE 20 30 11 16 1026.4 1026.3 0.0
22/09:30am 18.2 16.3 10.6 61 4.1 E 11 17 6 9 1026.7 1026.6 0.0
22/09:00am 17.4 15.4 11.4 68 3.2 E 13 17 7 9 1026.8 1026.7 0.0
22/08:30am 16.3 15.1 11.5 73 2.6 E 9 20 5 11 1026.9 1026.8 0.0
22/08:00am 14.7 14.9 12.0 84 1.5 ENE 2 7 1 4 1026.9 1026.8 0.0
22/07:30am 12.0 12.2 11.7 98 0.2 SSE 2 7 1 4 1026.9 1026.8 0.0
22/07:00am 9.8 9.8 9.8 100 0.0 CALM 0 6 0 3 1026.9 1026.8 0.0
22/06:30am 7.8 7.3 7.8 100 0.0 CALM 0 0 0 0 1026.8 1026.7 0.0
22/06:00am 7.8 6.5 7.7 99 0.0 WSW 4 7 2 4 1026.6 1026.5 0.0
22/05:30am 8.6 8.3 8.5 99 0.0 CALM 0 7 0 4 1026.7 1026.6 0.0
22/05:00am 9.9 9.9 9.9 100 0.0 CALM 0 4 0 2 1026.7 1026.6 0.0
22/04:30am 9.5 9.4 9.5 100 0.0 CALM 0 0 0 0 1026.9 1026.8 0.0
22/04:00am 9.0 8.4 9.0 100 0.0 SW 2 6 1 3 1027.1 1027.0 0.0
22/03:30am 8.1 6.3 8.0 99 0.0 SW 7 9 4 5 1027.4 1027.3 0.0
22/03:00am 8.7 7.2 8.4 98 0.1 ESE 6 7 3 4 1027.8 1027.7 0.0
22/02:30am 9.6 9.5 9.3 98 0.1 CALM 0 0 0 0 1028.0 1027.9 0.0
22/02:00am 9.6 8.2 9.6 100 0.0 SSE 7 7 4 4 1028.4 1028.3 0.0
22/01:30am 9.2 8.3 9.2 100 0.0 S 4 7 2 4 1029.0 1028.9 0.0
22/01:00am 8.1 6.3 8.0 99 0.0 SW 7 9 4 5 1029.4 1029.3 0.0
22/12:30am 8.9 7.0 8.9 100 0.0 SSW 9 13 5 7 1029.9 1029.8 0.0
22/12:00am 8.1 5.9 7.8 98 0.1 WSW 9 11 5 6 1030.2 1030.1 0.0
 
Date/Time
EDT
Temp
°C
App
Temp
°C
Dew
Point
Rel
Hum
%
Delta-T
°C
Wind Press
QNH
hPa
Press
MSL
hPa
Rain
since 9 am
mm
Dir
 
Spd
km/h
Gust
km/h
Spd
kts
Gust
kts
21/11:30pm 8.0 6.5 6.9 93 0.5 SW 4 9 2 5 1030.4 1030.3 0.0
21/11:00pm 9.1 7.0 8.2 94 0.4 WSW 9 13 5 7 1030.4 1030.3 0.0
21/10:30pm 9.5 7.5 8.6 94 0.4 WSW 9 11 5 6 1030.5 1030.4 0.0
21/10:00pm 10.0 9.2 6.7 80 1.5 CALM 0 6 0 3 1030.6 1030.5 0.0
21/09:30pm 11.9 10.0 7.6 75 2.1 S 7 9 4 5 1030.7 1030.6 0.0
21/09:00pm 12.5 10.5 7.2 70 2.5 SE 7 9 4 5 1030.6 1030.5 0.0
21/08:30pm 14.1 11.9 7.9 66 3.1 SE 9 15 5 8 1030.3 1030.2 0.0
21/08:00pm 15.0 12.9 8.3 64 3.4 SE 9 13 5 7 1029.9 1029.8 0.0
21/07:30pm 15.7 13.2 8.0 60 3.9 ESE 11 15 6 8 1029.7 1029.6 0.0
21/07:00pm 16.1 12.8 8.1 59 4.0 ESE 15 22 8 12 1029.7 1029.6 0.0
21/06:30pm 16.5 13.2 8.0 57 4.3 ESE 15 20 8 11 1029.5 1029.4 0.0
21/06:00pm 16.9 13.3 8.3 57 4.4 ESE 17 22 9 12 1029.2 1029.1 0.0
21/05:30pm 17.0 13.2 7.6 54 4.7 SE 17 20 9 11 1029.1 1029.0 0.0
21/05:00pm 17.3 13.7 8.4 56 4.5 SE 17 26 9 14 1029.0 1028.9 0.0
21/04:30pm 17.4 13.2 8.3 55 4.7 SE 20 28 11 15 1029.1 1029.0 0.0
21/04:00pm 17.4 13.1 7.7 53 4.9 SE 20 30 11 16 1029.2 1029.1 0.0
21/03:30pm 17.2 13.0 7.5 53 4.9 SE 19 26 10 14 1029.4 1029.3 0.0
21/03:00pm 18.0 14.5 7.4 50 5.3 ESE 15 26 8 14 1029.7 1029.6 0.0
21/02:30pm 17.5 13.7 7.5 52 5.0 ESE 17 22 9 12 1030.1 1030.0 0.0
21/02:00pm 17.4 14.2 6.9 50 5.2 ESE 13 20 7 11 1030.6 1030.5 0.0
21/01:30pm 17.4 13.5 7.2 51 5.1 ESE 17 20 9 11 1030.9 1030.8 0.0
21/01:00pm 17.6 14.0 6.8 49 5.3 ESE 15 22 8 12 1031.2 1031.1 0.0
21/12:30pm 17.2 14.0 6.7 50 5.2 ESE 13 17 7 9 1031.5 1031.4 0.0
21/12:00pm 16.9 13.0 7.0 52 4.9 ESE 17 20 9 11 1031.8 1031.7 0.0
21/11:30am 16.9 13.4 7.0 52 4.9 E 15 20 8 11 1032.0 1031.9 0.0
21/11:00am 16.2 12.8 7.7 57 4.2 ESE 15 20 8 11 1032.0 1031.9 0.0
21/10:30am 16.1 13.2 8.3 60 4.0 ESE 13 19 7 10 1032.2 1032.1 0.0
21/10:00am 16.7 13.2 8.7 59 4.1 E 17 22 9 12 1032.1 1032.0 0.0
21/09:30am 16.5 14.6 9.2 62 3.8 ESE 9 19 5 10 1032.1 1032.0 0.0
21/09:00am 15.9 14.1 9.6 66 3.3 ESE 9 11 5 6 1031.8 1031.7 0.2
21/08:30am 15.3 13.7 10.3 72 2.6 SE 9 11 5 6 1031.5 1031.4 0.2
21/08:00am 14.6 13.5 12.1 85 1.3 S 9 13 5 7 1031.3 1031.2 0.2
21/07:30am 14.1 12.3 12.1 88 1.1 S 13 17 7 9 1031.1 1031.0 0.2
21/07:00am 13.7 12.5 12.9 95 0.4 S 11 15 6 8 1030.8 1030.7 0.2
21/06:30am 13.4 13.2 13.1 98 0.2 SSE 6 9 3 5 1030.5 1030.4 0.2
21/06:00am 13.3 12.9 13.1 99 0.1 SSW 7 11 4 6 1030.2 1030.1 0.2
21/05:30am 13.3 12.9 13.1 99 0.1 S 7 11 4 6 1030.0 1029.9 0.2
21/05:00am 13.4 12.8 13.4 100 0.0 SSE 9 11 5 6 1029.9 1029.8 0.2
21/04:30am 13.2 13.0 13.0 99 0.1 S 6 7 3 4 1029.8 1029.7 0.2
21/04:00am 13.5 12.8 13.2 98 0.2 SE 9 13 5 7 1029.9 1029.8 0.2
21/03:30am 14.0 12.4 12.9 93 0.6 S 13 19 7 10 1029.9 1029.8 0.0
21/03:00am 13.9 12.3 12.8 93 0.6 S 13 15 7 8 1029.9 1029.8 0.0
21/02:30am 13.9 13.1 13.0 94 0.5 S 9 11 5 6 1030.0 1029.9 0.0
21/02:00am 13.9 12.7 12.8 93 0.6 S 11 13 6 7 1030.2 1030.1 0.0
21/01:30am 14.5 12.5 12.7 89 1.0 SSE 15 20 8 11 1030.4 1030.3 0.0
21/01:00am 14.3 13.9 13.0 92 0.7 S 7 11 4 6 1030.6 1030.5 0.0
21/12:30am 14.5 14.2 13.2 92 0.7 SSE 7 9 4 5 1030.9 1030.8 0.0
21/12:00am 14.6 14.4 13.1 91 0.8 SSE 6 9 3 5 1031.1 1031.0 0.0
 
Date/Time
EDT
Temp
°C
App
Temp
°C
Dew
Point
Rel
Hum
%
Delta-T
°C
Wind Press
QNH
hPa
Press
MSL
hPa
Rain
since 9 am
mm
Dir
 
Spd
km/h
Gust
km/h
Spd
kts
Gust
kts
20/11:30pm 14.6 13.9 13.3 92 0.7 SSE 9 13 5 7 1031.1 1031.0 0.0
20/11:00pm 14.5 14.2 13.4 93 0.6 S 7 9 4 5 1031.1 1031.0 0.0
20/10:30pm 14.3 14.2 13.2 93 0.6 SSE 6 7 3 4 1031.1 1031.0 0.0
20/10:00pm 14.5 13.9 13.4 93 0.6 SSE 9 13 5 7 1031.2 1031.1 0.0
20/09:30pm 14.7 13.9 13.9 95 0.5 SE 11 17 6 9 1031.2 1031.1 0.0
20/09:00pm 14.6 14.2 14.0 96 0.3 SSE 9 11 5 6 1030.9 1030.8 0.0
20/08:30pm 14.5 13.8 14.2 98 0.2 SSE 11 19 6 10 1030.5 1030.4 0.0
20/08:00pm 14.9 13.9 14.6 98 0.2 SSE 13 19 7 10 1030.1 1030.0 0.0
20/07:30pm 15.1 13.2 14.3 95 0.5 SE 17 24 9 13 1029.6 1029.5 0.0
20/07:00pm 15.4 14.0 14.4 94 0.6 SSE 15 17 8 9 1029.3 1029.2 0.0
20/06:30pm 15.4 13.7 14.6 95 0.5 SE 17 24 9 13 1029.1 1029.0 0.0
20/06:00pm 16.5 14.3 13.2 81 1.8 SE 17 24 9 13 1028.8 1028.7 0.0
20/05:30pm 16.9 15.8 15.4 91 0.9 SSE 15 26 8 14 1028.7 1028.6 0.0
20/05:00pm 16.8 14.2 13.7 82 1.7 SSE 20 28 11 15 1028.6 1028.5 0.0
20/04:30pm 18.3 15.6 13.0 71 3.0 SSE 19 24 10 13 1028.2 1028.1 0.0
20/04:00pm 18.4 14.8 11.9 66 3.6 SSE 22 39 12 21 1028.2 1028.1 0.0
20/03:30pm 19.7 16.2 10.9 57 4.8 S 20 28 11 15 1028.1 1028.0 0.0
20/03:00pm 19.9 16.7 10.0 53 5.3 S 17 30 9 16 1028.3 1028.2 0.0
20/02:30pm 19.2 15.3 10.7 58 4.6 S 22 30 12 16 1028.5 1028.4 0.0
20/02:00pm 19.4 16.6 11.2 59 4.5 S 17 26 9 14 1028.9 1028.8 0.0
20/01:30pm 18.8 13.7 10.6 59 4.4 SSE 28 37 15 20 1029.3 1029.2 0.0
20/01:00pm 19.2 15.2 10.5 57 4.7 SSE 22 35 12 19 1029.2 1029.1 0.0
20/12:30pm 19.8 15.7 10.0 53 5.3 S 22 33 12 18 1029.2 1029.1 0.0
20/12:00pm 18.5 14.5 10.6 60 4.2 S 22 32 12 17 1029.5 1029.4 0.0
20/11:30am 19.1 15.2 10.9 59 4.5 S 22 30 12 16 1029.3 1029.2 0.0
20/11:00am 19.7 15.6 10.1 54 5.1 S 22 39 12 21 1029.0 1028.9 0.0
20/10:30am 19.5 14.6 11.3 59 4.5 S 28 41 15 22 1028.8 1028.7 0.0
20/10:00am 20.2 16.2 11.9 59 4.6 S 24 35 13 19 1028.2 1028.1 0.0
20/09:30am 19.0 15.2 12.3 65 3.7 S 24 33 13 18 1027.7 1027.6 0.0
20/09:12am 19.0 14.4 12.3 65 3.7 S 28 46 15 25 1027.2 1027.1 0.0
20/09:00am 19.1 14.7 12.8 67 3.5 S 28 43 15 23 1027.0 1026.9 0.0

Other Formats:

Comma delimited format used in spreadsheet applications
http://www.bom.gov.au/fwo/IDN60801/IDN60801.95771.axf

JavaScript Object Notation format (JSON) in row-major order
http://www.bom.gov.au/fwo/IDN60801/IDN60801.95771.json